Terminal Aerodrome Forecast
Issued by NWS

Home | Current Version | Previous Version | Text Only | Print | Product List | Glossary On
Versions: 1 2 3 4 5 6 7 8 9 10 11 12 13
000
FTAK31 PAJN 211100 RRA
TAFAYA
TAF
PAYA 211141Z 2112/2212 10010KT P6SM -SHRA SCT035 BKN060 OVC090
      WS015/14035KT
      TEMPO 2112/2116 12015G30KT 5SM -SHRA BR BKN035 OVC060
     FM211800 VRB03KT P6SM VCSH BKN030 OVC050
     FM220000 VRB08KT 5SM -SHRA BKN020 OVC050
      AMD LTD TO CLD VIS AND WIND 2201/2210=

USA.gov is the U.S. government's official web portal to all federal, state and local government web resources and services.